Air Resources Laboratory banner image
Air Resources Laboratory web site National Oceanic and Atmospheric Administration (NOAA)

mn metar


KANE 261545Z 27005KT 10SM SKC 29/17 A2971=